createdAt,value
2019-05-14T00:01:13.995Z,99.90
2019-05-14T00:03:43.860Z,99.90
2019-05-14T00:06:13.744Z,99.90
2019-05-14T00:08:43.611Z,99.90
2019-05-14T00:11:13.467Z,99.90
2019-05-14T00:13:43.314Z,99.90
2019-05-14T00:16:13.152Z,99.90
2019-05-14T00:18:43.064Z,99.90
2019-05-14T00:21:13.025Z,99.90
2019-05-14T00:23:42.907Z,99.90
2019-05-14T00:26:12.889Z,99.90
2019-05-14T00:28:42.828Z,99.90
2019-05-14T00:31:12.685Z,99.90
2019-05-14T00:33:42.576Z,99.90
2019-05-14T00:36:12.514Z,99.90
2019-05-14T00:38:42.384Z,99.90
2019-05-14T00:41:12.226Z,99.90
2019-05-14T00:43:42.089Z,99.90
2019-05-14T00:46:11.987Z,99.90
2019-05-14T00:48:42.334Z,99.90
2019-05-14T00:51:12.196Z,99.90
2019-05-14T00:53:42.243Z,99.90
2019-05-14T00:56:12.320Z,99.90
2019-05-14T00:58:42.207Z,99.90
2019-05-14T01:01:12.104Z,99.90
2019-05-14T01:03:41.998Z,99.90
2019-05-14T01:06:11.979Z,99.90
2019-05-14T01:08:41.871Z,99.90
2019-05-14T01:11:11.964Z,99.90
2019-05-14T01:13:42.463Z,99.90
2019-05-14T01:16:12.899Z,99.90
2019-05-14T01:18:44.137Z,99.90
2019-05-14T01:21:14.551Z,99.90
2019-05-14T01:23:44.887Z,99.90
2019-05-14T01:26:15.064Z,99.90
2019-05-14T01:28:45.536Z,99.90
2019-05-14T01:31:15.712Z,99.90
2019-05-14T01:33:45.821Z,99.90
2019-05-14T01:36:15.997Z,99.90
2019-05-14T01:38:47.280Z,99.90
2019-05-14T01:41:17.520Z,99.90
2019-05-14T01:43:47.791Z,99.90
2019-05-14T01:46:17.946Z,99.90
2019-05-14T01:48:48.337Z,99.90
2019-05-14T01:51:18.512Z,99.90
2019-05-14T01:53:48.633Z,99.90
2019-05-14T01:56:18.751Z,99.90
2019-05-14T01:58:49.121Z,99.90
2019-05-14T02:01:21.750Z,99.90
2019-05-14T02:03:52.388Z,99.90
2019-05-14T02:06:22.555Z,99.90
2019-05-14T02:08:53.787Z,99.90
2019-05-14T02:11:24.020Z,99.90
2019-05-14T02:13:54.232Z,99.90
2019-05-14T02:16:24.420Z,99.90
2019-05-14T02:18:54.674Z,99.90
2019-05-14T02:21:24.863Z,99.90
2019-05-14T02:23:55.233Z,99.90
2019-05-14T02:26:25.557Z,99.90
2019-05-14T02:28:56.839Z,99.90
2019-05-14T02:31:29.210Z,99.90
2019-05-14T02:33:59.216Z,99.90
2019-05-14T02:36:30.967Z,99.90
2019-05-14T02:39:01.705Z,99.90
2019-05-14T02:41:31.912Z,99.90
2019-05-14T02:44:02.128Z,99.90
2019-05-14T02:46:32.296Z,99.90
2019-05-14T02:49:03.734Z,99.90
2019-05-14T02:51:33.853Z,99.90
2019-05-14T02:54:04.041Z,99.90
2019-05-14T02:56:34.367Z,99.90
2019-05-14T02:59:09.630Z,99.90
2019-05-14T03:01:40.474Z,99.90
2019-05-14T03:04:22.269Z,99.90
2019-05-14T03:06:54.073Z,99.90
2019-05-14T03:09:24.215Z,99.90
2019-05-14T03:11:54.528Z,99.90
2019-05-14T03:14:24.773Z,99.90
2019-05-14T03:16:59.197Z,99.90
2019-05-14T03:19:29.756Z,99.90
2019-05-14T03:22:00.345Z,99.90
2019-05-14T03:24:30.773Z,99.90
2019-05-14T03:27:02.321Z,99.90
2019-05-14T03:29:32.750Z,99.90
2019-05-14T03:32:03.907Z,99.90
2019-05-14T03:34:34.427Z,99.90
2019-05-14T03:37:04.860Z,99.90
2019-05-14T03:39:35.176Z,99.90
2019-05-14T03:42:05.452Z,99.90
2019-05-14T03:44:35.723Z,99.90
2019-05-14T03:47:10.160Z,99.90
2019-05-14T03:49:39.977Z,99.90
2019-05-14T03:52:10.369Z,99.90
2019-05-14T03:54:41.116Z,99.90
2019-05-14T03:57:12.460Z,99.90
2019-05-14T03:59:42.653Z,99.90
2019-05-14T04:02:12.907Z,99.90
2019-05-14T04:04:43.265Z,99.90
2019-05-14T04:07:13.708Z,99.90
2019-05-14T04:09:49.080Z,99.90
2019-05-14T04:12:19.389Z,99.90
2019-05-14T04:14:51.843Z,99.90
2019-05-14T04:17:36.699Z,99.90
2019-05-14T04:19:59.938Z,99.90
2019-05-14T04:22:31.716Z,99.90
2019-05-14T04:25:03.668Z,99.90
2019-05-14T04:27:35.501Z,99.90
2019-05-14T04:30:09.450Z,99.90
2019-05-14T04:32:41.650Z,99.90
2019-05-14T04:35:12.016Z,99.90
2019-05-14T04:37:42.514Z,99.90
2019-05-14T04:40:12.860Z,99.90
2019-05-14T04:42:43.084Z,99.90
2019-05-14T04:45:13.611Z,99.90
2019-05-14T04:47:44.872Z,99.90
2019-05-14T04:50:15.504Z,99.90
2019-05-14T04:52:49.079Z,99.90
2019-05-14T04:55:20.415Z,99.90
2019-05-14T04:57:50.322Z,99.90
2019-05-14T05:00:20.969Z,99.90
2019-05-14T05:02:51.206Z,99.90
2019-05-14T05:05:23.425Z,99.90
2019-05-14T05:07:55.445Z,99.90
2019-05-14T05:10:25.661Z,99.90
2019-05-14T05:12:58.463Z,99.90
2019-05-14T05:15:29.084Z,99.90
2019-05-14T05:17:59.411Z,99.90
2019-05-14T05:20:29.651Z,99.90
2019-05-14T05:22:59.740Z,99.90
2019-05-14T05:25:30.276Z,99.90
2019-05-14T05:28:00.593Z,99.90
2019-05-14T05:30:31.004Z,99.90
2019-05-14T05:33:01.243Z,99.90
2019-05-14T05:35:31.433Z,99.90
2019-05-14T05:38:01.691Z,99.90
2019-05-14T05:40:32.044Z,99.90
2019-05-14T05:43:02.443Z,99.90
2019-05-14T05:45:32.666Z,99.90
2019-05-14T05:48:02.858Z,99.90
2019-05-14T05:50:33.212Z,99.90
2019-05-14T05:53:03.767Z,99.90
2019-05-14T05:55:34.265Z,99.90
2019-05-14T05:58:04.608Z,99.90
2019-05-14T06:00:40.257Z,99.90
2019-05-14T06:03:11.647Z,99.90
2019-05-14T06:05:41.912Z,99.90
2019-05-14T06:08:13.123Z,99.90
2019-05-14T06:10:43.560Z,99.00
2019-05-14T06:13:14.303Z,98.80
2019-05-14T06:15:48.709Z,99.90
2019-05-14T06:18:19.545Z,99.60
2019-05-14T06:20:49.431Z,99.00
2019-05-14T06:23:20.119Z,98.10
2019-05-14T06:25:50.349Z,99.90
2019-05-14T06:28:21.177Z,99.90
2019-05-14T06:30:51.506Z,99.90
2019-05-14T06:33:21.949Z,99.90
2019-05-14T06:35:52.353Z,99.90
2019-05-14T06:38:22.783Z,99.90
2019-05-14T06:40:53.211Z,99.90
2019-05-14T06:43:23.844Z,99.90
2019-05-14T06:45:54.068Z,99.90
2019-05-14T06:48:30.868Z,99.90
2019-05-14T06:50:58.261Z,99.90
2019-05-14T06:53:28.989Z,99.90
2019-05-14T06:55:59.588Z,99.90
2019-05-14T06:58:30.200Z,99.90
2019-05-14T07:01:00.514Z,99.90
2019-05-14T07:03:30.694Z,99.90
2019-05-14T07:06:00.883Z,99.90
2019-05-14T07:08:32.014Z,99.90
2019-05-14T07:11:02.634Z,99.90
2019-05-14T07:13:32.854Z,99.90
2019-05-14T07:16:03.291Z,97.30
2019-05-14T07:18:46.308Z,94.00
2019-05-14T07:21:08.050Z,94.70
2019-05-14T07:23:38.438Z,94.80
2019-05-14T07:26:08.715Z,93.80
2019-05-14T07:28:41.969Z,93.60
2019-05-14T07:31:10.245Z,93.00
2019-05-14T07:33:40.166Z,93.20
2019-05-14T07:36:10.031Z,94.40
2019-05-14T07:38:40.020Z,92.90
2019-05-14T07:41:10.044Z,91.50
2019-05-14T07:43:40.072Z,92.10
2019-05-14T07:46:09.963Z,90.30
2019-05-14T07:48:40.878Z,92.40
2019-05-14T07:51:10.748Z,93.20
2019-05-14T07:53:42.485Z,92.40
2019-05-14T07:56:12.395Z,89.60
2019-05-14T07:58:42.356Z,88.20
2019-05-14T08:01:12.271Z,91.80
2019-05-14T08:03:42.184Z,86.00
2019-05-14T08:06:12.026Z,83.40
2019-05-14T08:08:43.223Z,85.50
2019-05-14T08:11:13.095Z,86.80
2019-05-14T08:13:43.204Z,80.30
2019-05-14T08:16:13.453Z,81.30
2019-05-14T08:18:43.850Z,78.70
2019-05-14T08:21:14.043Z,77.60
2019-05-14T08:23:44.098Z,78.90
2019-05-14T08:26:14.417Z,75.90
2019-05-14T08:28:44.752Z,79.10
2019-05-14T08:31:18.583Z,74.30
2019-05-14T08:33:48.831Z,76.30
2019-05-14T08:36:19.091Z,76.40
2019-05-14T08:38:50.255Z,74.50
2019-05-14T08:41:20.968Z,76.20
2019-05-14T08:43:51.188Z,74.40
2019-05-14T08:46:21.524Z,72.60
2019-05-14T08:48:52.163Z,74.60
2019-05-14T08:51:22.389Z,73.70
2019-05-14T08:53:52.636Z,71.30
2019-05-14T08:56:23.026Z,76.30
2019-05-14T08:58:53.329Z,72.50
2019-05-14T09:01:23.687Z,71.30
2019-05-14T09:03:53.867Z,70.40
2019-05-14T09:06:24.301Z,70.30
2019-05-14T09:08:59.580Z,69.80
2019-05-14T09:11:35.855Z,70.00
2019-05-14T09:14:02.045Z,68.00
2019-05-14T09:16:43.239Z,67.20
2019-05-14T09:19:04.341Z,69.60
2019-05-14T09:21:34.750Z,66.00
2019-05-14T09:24:05.096Z,69.10
2019-05-14T09:26:35.412Z,69.60
2019-05-14T09:29:18.415Z,65.90
2019-05-14T09:31:39.138Z,67.20
2019-05-14T09:34:09.668Z,67.30
2019-05-14T09:36:39.917Z,67.50
2019-05-14T09:39:12.066Z,65.60
2019-05-14T09:41:42.144Z,67.00
2019-05-14T09:44:12.567Z,67.60
2019-05-14T09:46:42.822Z,69.60
2019-05-14T09:49:13.176Z,70.00
2019-05-14T09:51:43.328Z,70.10
2019-05-14T09:54:13.583Z,74.00
2019-05-14T09:56:43.974Z,69.00
2019-05-14T09:59:14.104Z,68.20
2019-05-14T10:01:44.663Z,65.00
2019-05-14T10:04:15.004Z,66.30
2019-05-14T10:06:45.214Z,67.50
2019-05-14T10:09:15.560Z,67.70
2019-05-14T10:11:45.943Z,65.90
2019-05-14T10:14:16.288Z,70.40
2019-05-14T10:16:48.963Z,67.40
2019-05-14T10:19:19.354Z,68.60
2019-05-14T10:21:49.626Z,69.60
2019-05-14T10:24:19.944Z,70.00
2019-05-14T10:26:50.381Z,64.90
2019-05-14T10:29:21.948Z,68.90
2019-05-14T10:31:52.214Z,66.40
2019-05-14T10:34:22.363Z,68.00
2019-05-14T10:36:53.568Z,68.80
2019-05-14T10:39:42.757Z,65.60
2019-05-14T10:42:13.193Z,71.30
2019-05-14T10:44:43.371Z,67.40
2019-05-14T10:47:13.726Z,66.80
2019-05-14T10:49:44.100Z,62.80
2019-05-14T10:52:14.223Z,67.00
2019-05-14T10:54:55.394Z,67.70
2019-05-14T10:57:18.299Z,62.10
2019-05-14T10:59:48.564Z,63.70
2019-05-14T11:02:18.969Z,65.30
2019-05-14T11:04:49.312Z,61.90
2019-05-14T11:07:19.632Z,64.60
2019-05-14T11:09:49.792Z,64.30
2019-05-14T11:12:19.987Z,65.40
2019-05-14T11:14:52.235Z,62.10
2019-05-14T11:17:22.116Z,60.10
2019-05-14T11:19:52.362Z,63.10
2019-05-14T11:22:22.689Z,60.10
2019-05-14T11:24:52.874Z,60.40
2019-05-14T11:27:23.106Z,63.80
2019-05-14T11:29:53.346Z,60.20
2019-05-14T11:32:23.582Z,59.80
2019-05-14T11:34:53.896Z,62.10
2019-05-14T11:37:24.189Z,63.60
2019-05-14T11:39:54.345Z,59.90
2019-05-14T11:42:24.801Z,59.80
2019-05-14T11:44:55.124Z,59.10
2019-05-14T11:47:25.621Z,58.90
2019-05-14T11:49:58.545Z,57.80
2019-05-14T11:52:28.727Z,58.40
2019-05-14T11:54:59.072Z,61.20
2019-05-14T11:57:30.380Z,58.80
2019-05-14T12:00:00.521Z,59.00
2019-05-14T12:02:30.742Z,58.30
2019-05-14T12:05:01.106Z,58.70
2019-05-14T12:07:31.414Z,58.00
2019-05-14T12:10:01.564Z,58.10
2019-05-14T12:12:31.788Z,58.90
2019-05-14T12:15:02.091Z,58.20
2019-05-14T12:17:32.382Z,59.20
2019-05-14T12:20:02.587Z,58.20
2019-05-14T12:22:33.359Z,58.50
2019-05-14T12:25:03.766Z,54.50
2019-05-14T12:27:34.193Z,56.50
2019-05-14T12:30:04.808Z,54.40
2019-05-14T12:32:35.069Z,56.10
2019-05-14T12:35:08.425Z,53.90
2019-05-14T12:37:38.877Z,55.20
2019-05-14T12:40:28.896Z,55.70
2019-05-14T12:42:59.561Z,52.40
2019-05-14T12:45:30.122Z,53.60
2019-05-14T12:48:00.309Z,54.30
2019-05-14T12:50:30.264Z,57.10
2019-05-14T12:53:00.276Z,55.00
2019-05-14T12:55:30.166Z,54.20
2019-05-14T12:58:00.080Z,56.10
2019-05-14T13:00:30.094Z,52.30
2019-05-14T13:02:59.968Z,53.00
2019-05-14T13:05:29.924Z,54.80
2019-05-14T13:07:59.840Z,51.80
2019-05-14T13:10:29.946Z,53.40
2019-05-14T13:12:59.912Z,51.20
2019-05-14T13:15:30.014Z,49.50
2019-05-14T13:18:00.135Z,51.10
2019-05-14T13:20:30.102Z,49.40
2019-05-14T13:22:59.977Z,52.40
2019-05-14T13:25:30.460Z,50.50
2019-05-14T13:28:01.533Z,52.60
2019-05-14T13:30:31.483Z,49.20
2019-05-14T13:33:01.382Z,49.40
2019-05-14T13:35:31.278Z,48.80
2019-05-14T13:38:02.240Z,50.30
2019-05-14T13:40:32.180Z,49.30
2019-05-14T13:43:02.693Z,50.20
2019-05-14T13:45:32.582Z,48.30
2019-05-14T13:48:02.575Z,49.70
2019-05-14T13:50:32.469Z,48.20
2019-05-14T13:53:09.238Z,48.00
2019-05-14T13:55:33.998Z,47.90
2019-05-14T13:58:04.918Z,47.30
2019-05-14T14:00:34.932Z,49.00
2019-05-14T14:03:04.806Z,49.20
2019-05-14T14:05:34.650Z,45.90
2019-05-14T14:08:05.718Z,44.30
2019-05-14T14:10:36.675Z,45.10
2019-05-14T14:13:10.962Z,44.60
2019-05-14T14:15:39.830Z,46.00
2019-05-14T14:18:09.731Z,44.20
2019-05-14T14:20:39.615Z,44.90
2019-05-14T14:23:22.089Z,44.70
2019-05-14T14:25:41.248Z,45.00
2019-05-14T14:28:11.277Z,46.10
2019-05-14T14:30:41.298Z,45.60
2019-05-14T14:33:11.209Z,45.50
2019-05-14T14:35:41.126Z,46.60
2019-05-14T14:38:11.125Z,47.20
2019-05-14T14:40:41.146Z,48.30
2019-05-14T14:43:11.153Z,45.30
2019-05-14T14:45:45.604Z,44.50
2019-05-14T14:48:13.037Z,46.70
2019-05-14T14:50:42.916Z,44.60
2019-05-14T14:53:12.783Z,44.20
2019-05-14T14:55:42.697Z,44.70
2019-05-14T14:58:13.206Z,45.60
2019-05-14T15:00:43.151Z,45.40
2019-05-14T15:03:13.143Z,45.10
2019-05-14T15:05:43.035Z,43.40
2019-05-14T15:08:12.963Z,41.40
2019-05-14T15:10:42.858Z,40.30
2019-05-14T15:13:12.735Z,41.00
2019-05-14T15:15:42.648Z,41.90
2019-05-14T15:18:14.158Z,40.10
2019-05-14T15:20:44.225Z,41.90
2019-05-14T15:23:14.117Z,41.60
2019-05-14T15:25:44.013Z,40.40
2019-05-14T15:28:14.772Z,39.50
2019-05-14T15:30:44.658Z,40.50
2019-05-14T15:33:14.672Z,41.20
2019-05-14T15:35:44.666Z,42.50
2019-05-14T15:38:14.655Z,40.50
2019-05-14T15:40:44.568Z,42.10
2019-05-14T15:43:14.455Z,38.70
2019-05-14T15:45:48.366Z,40.60
2019-05-14T15:48:19.965Z,39.50
2019-05-14T15:50:50.480Z,39.30
2019-05-14T15:53:20.874Z,39.50
2019-05-14T15:55:50.727Z,39.50
2019-05-14T15:58:21.607Z,39.70
2019-05-14T16:00:51.708Z,37.10
2019-05-14T16:03:21.580Z,39.70
2019-05-14T16:05:51.977Z,38.30
2019-05-14T16:08:22.638Z,39.20
2019-05-14T16:10:53.146Z,40.70
2019-05-14T16:13:23.112Z,39.10
2019-05-14T16:15:53.011Z,40.80
2019-05-14T16:18:23.084Z,41.40
2019-05-14T16:20:53.085Z,41.20
2019-05-14T16:23:23.116Z,41.40
2019-05-14T16:25:53.519Z,42.60
2019-05-14T16:28:23.883Z,42.80
2019-05-14T16:30:54.192Z,43.10
2019-05-14T16:33:24.423Z,43.20
2019-05-14T16:35:54.848Z,44.50
2019-05-14T16:38:28.337Z,44.60
2019-05-14T16:40:59.712Z,46.30
2019-05-14T16:43:32.472Z,45.70
2019-05-14T16:46:03.304Z,46.10
2019-05-14T16:48:33.511Z,46.30
2019-05-14T16:51:03.850Z,47.00
2019-05-14T16:53:34.072Z,45.90
2019-05-14T16:56:04.203Z,46.40
2019-05-14T16:58:34.496Z,47.00
2019-05-14T17:01:04.549Z,47.20
2019-05-14T17:03:34.853Z,47.90
2019-05-14T17:06:05.077Z,48.10
2019-05-14T17:08:39.127Z,48.70
2019-05-14T17:11:09.888Z,47.60
2019-05-14T17:13:40.376Z,48.00
2019-05-14T17:16:10.531Z,48.50
2019-05-14T17:18:40.941Z,48.60
2019-05-14T17:21:11.193Z,49.10
2019-05-14T17:23:41.732Z,49.50
2019-05-14T17:26:11.975Z,50.00
2019-05-14T17:28:42.280Z,50.40
2019-05-14T17:31:12.729Z,50.80
2019-05-14T17:33:42.849Z,51.70
2019-05-14T17:36:13.069Z,51.40
2019-05-14T17:38:44.662Z,50.90
2019-05-14T17:41:14.969Z,52.20
2019-05-14T17:43:45.488Z,51.30
2019-05-14T17:46:15.700Z,51.50
2019-05-14T17:48:48.564Z,51.10
2019-05-14T17:51:18.355Z,51.40
2019-05-14T17:53:48.516Z,52.20
2019-05-14T17:56:19.519Z,52.10
2019-05-14T17:58:50.798Z,52.00
2019-05-14T18:01:20.979Z,52.50
2019-05-14T18:03:51.025Z,52.50
2019-05-14T18:06:21.388Z,52.60
2019-05-14T18:08:52.659Z,52.40
2019-05-14T18:11:22.708Z,51.90
2019-05-14T18:13:52.925Z,51.10
2019-05-14T18:16:23.279Z,51.90
2019-05-14T18:18:53.516Z,51.20
2019-05-14T18:21:23.697Z,51.40
2019-05-14T18:23:54.076Z,52.80
2019-05-14T18:26:24.399Z,52.20
2019-05-14T18:28:54.728Z,52.00
2019-05-14T18:31:24.892Z,51.60
2019-05-14T18:33:55.669Z,52.70
2019-05-14T18:36:28.229Z,52.90
2019-05-14T18:38:58.702Z,53.10
2019-05-14T18:41:29.489Z,53.00
2019-05-14T18:43:59.838Z,52.60
2019-05-14T18:46:30.160Z,53.20
2019-05-14T18:49:00.448Z,54.40
2019-05-14T18:51:30.683Z,55.00
2019-05-14T18:54:00.953Z,54.70
2019-05-14T18:56:30.998Z,53.70
2019-05-14T18:59:01.351Z,54.50
2019-05-14T19:01:31.836Z,54.10
2019-05-14T19:04:02.039Z,55.20
2019-05-14T19:06:32.306Z,55.50
2019-05-14T19:09:03.276Z,54.10
2019-05-14T19:11:33.792Z,55.00
2019-05-14T19:14:03.863Z,54.40
2019-05-14T19:16:34.416Z,54.90
2019-05-14T19:19:04.764Z,53.80
2019-05-14T19:21:34.944Z,54.70
2019-05-14T19:24:05.093Z,53.70
2019-05-14T19:26:37.782Z,53.70
2019-05-14T19:29:08.661Z,52.90
2019-05-14T19:31:39.458Z,53.40
2019-05-14T19:34:09.916Z,53.10
2019-05-14T19:36:40.142Z,54.50
2019-05-14T19:39:10.540Z,54.40
2019-05-14T19:41:40.887Z,54.20
2019-05-14T19:44:11.399Z,55.00
2019-05-14T19:46:44.276Z,55.10
2019-05-14T19:49:14.585Z,55.40
2019-05-14T19:51:44.815Z,54.90
2019-05-14T19:54:15.039Z,54.80
2019-05-14T19:56:55.706Z,54.10
2019-05-14T19:59:18.331Z,54.50
2019-05-14T20:01:48.560Z,55.20
2019-05-14T20:04:18.729Z,54.60
2019-05-14T20:06:49.553Z,54.70
2019-05-14T20:09:19.851Z,54.40
2019-05-14T20:11:50.133Z,53.90
2019-05-14T20:14:20.252Z,54.50
2019-05-14T20:16:50.516Z,55.80
2019-05-14T20:19:20.862Z,54.30
2019-05-14T20:21:51.062Z,54.30
2019-05-14T20:24:21.182Z,55.90
2019-05-14T20:27:04.915Z,56.20
2019-05-14T20:29:23.265Z,56.60
2019-05-14T20:31:53.703Z,56.50
2019-05-14T20:34:24.016Z,55.40
2019-05-14T20:36:54.204Z,55.10
2019-05-14T20:39:24.419Z,55.00
2019-05-14T20:41:54.628Z,54.70
2019-05-14T20:44:24.946Z,55.60
2019-05-14T20:46:55.452Z,54.60
2019-05-14T20:49:25.553Z,54.60
2019-05-14T20:51:55.775Z,56.00
2019-05-14T20:54:25.996Z,55.80
2019-05-14T20:56:58.615Z,56.50
2019-05-14T20:59:28.956Z,55.60
2019-05-14T21:01:59.055Z,55.30
2019-05-14T21:04:29.173Z,55.50
2019-05-14T21:06:59.484Z,55.90
2019-05-14T21:09:29.582Z,56.00
2019-05-14T21:11:59.741Z,56.70
2019-05-14T21:14:29.965Z,56.40
2019-05-14T21:17:00.248Z,56.70
2019-05-14T21:19:30.751Z,57.60
2019-05-14T21:22:01.222Z,56.90
2019-05-14T21:24:32.220Z,56.90
2019-05-14T21:27:02.465Z,56.40
2019-05-14T21:29:32.789Z,56.20
2019-05-14T21:32:03.044Z,56.90
2019-05-14T21:34:33.185Z,57.70
2019-05-14T21:37:03.455Z,57.20
2019-05-14T21:39:33.783Z,56.70
2019-05-14T21:42:04.002Z,57.40
2019-05-14T21:44:34.160Z,57.30
2019-05-14T21:47:04.877Z,57.80
2019-05-14T21:49:35.179Z,58.10
2019-05-14T21:52:05.447Z,58.80
2019-05-14T21:54:39.519Z,58.90
2019-05-14T21:57:11.828Z,59.00
2019-05-14T21:59:41.792Z,59.00
2019-05-14T22:02:21.708Z,58.90
2019-05-14T22:04:44.396Z,59.30
2019-05-14T22:07:15.584Z,59.30
2019-05-14T22:09:45.696Z,59.90
2019-05-14T22:12:15.882Z,59.60
2019-05-14T22:14:48.131Z,59.30
2019-05-14T22:17:18.273Z,59.30
2019-05-14T22:19:49.074Z,59.60
2019-05-14T22:22:19.368Z,59.60
2019-05-14T22:24:49.481Z,59.60
2019-05-14T22:27:19.709Z,60.10
2019-05-14T22:29:49.893Z,60.00
2019-05-14T22:32:20.192Z,61.20
2019-05-14T22:34:50.402Z,60.70
2019-05-14T22:37:20.661Z,60.90
2019-05-14T22:39:50.872Z,60.30
2019-05-14T22:42:21.059Z,60.40
2019-05-14T22:44:51.233Z,60.90
2019-05-14T22:47:22.636Z,60.90
2019-05-14T22:49:52.900Z,60.30
2019-05-14T22:52:23.223Z,60.80
2019-05-14T22:54:53.380Z,60.20
2019-05-14T22:57:23.665Z,60.00
2019-05-14T22:59:53.990Z,60.90
2019-05-14T23:02:24.212Z,62.30
2019-05-14T23:04:54.924Z,62.60
2019-05-14T23:07:26.194Z,62.00
2019-05-14T23:09:56.348Z,62.50
2019-05-14T23:12:28.582Z,61.90
2019-05-14T23:14:58.397Z,62.10
2019-05-14T23:17:28.620Z,61.30
2019-05-14T23:19:58.891Z,61.80
2019-05-14T23:22:29.679Z,63.00
2019-05-14T23:25:00.060Z,61.40
2019-05-14T23:27:31.484Z,63.00
2019-05-14T23:30:01.676Z,63.50
2019-05-14T23:32:32.098Z,63.30
2019-05-14T23:35:02.283Z,62.40
2019-05-14T23:37:32.663Z,62.50
2019-05-14T23:40:02.968Z,61.90
2019-05-14T23:42:33.253Z,61.90
2019-05-14T23:45:03.413Z,62.10
2019-05-14T23:47:33.772Z,62.10
2019-05-14T23:50:04.412Z,61.80
2019-05-14T23:52:34.698Z,61.90
2019-05-14T23:55:05.056Z,62.00
2019-05-14T23:57:35.445Z,63.10
